sensor_id;sensor_type;location;lat;lon;timestamp;temperature;humidity
15359;DHT22;7779;49.596;11.070;2023-02-15T00:01:39;2.60;74.00
15359;DHT22;7779;49.596;11.070;2023-02-15T00:04:06;2.60;74.00
15359;DHT22;7779;49.596;11.070;2023-02-15T00:06:33;2.60;74.00
15359;DHT22;7779;49.596;11.070;2023-02-15T00:08:59;2.60;73.90
15359;DHT22;7779;49.596;11.070;2023-02-15T00:11:25;2.60;73.90
15359;DHT22;7779;49.596;11.070;2023-02-15T00:16:36;2.60;73.90
15359;DHT22;7779;49.596;11.070;2023-02-15T00:19:03;2.60;74.00
15359;DHT22;7779;49.596;11.070;2023-02-15T00:21:30;2.50;73.80
15359;DHT22;7779;49.596;11.070;2023-02-15T00:23:59;2.50;73.80
15359;DHT22;7779;49.596;11.070;2023-02-15T00:26:26;2.50;73.80
15359;DHT22;7779;49.596;11.070;2023-02-15T00:28:52;2.50;74.40
15359;DHT22;7779;49.596;11.070;2023-02-15T00:31:19;2.50;73.90
15359;DHT22;7779;49.596;11.070;2023-02-15T00:33:45;2.50;73.80
15359;DHT22;7779;49.596;11.070;2023-02-15T00:36:12;2.50;73.90
15359;DHT22;7779;49.596;11.070;2023-02-15T00:38:38;2.50;73.90
15359;DHT22;7779;49.596;11.070;2023-02-15T00:41:06;2.40;73.80
15359;DHT22;7779;49.596;11.070;2023-02-15T00:43:33;2.50;73.90
15359;DHT22;7779;49.596;11.070;2023-02-15T00:46:01;2.40;73.80
15359;DHT22;7779;49.596;11.070;2023-02-15T00:48:27;2.40;73.60
15359;DHT22;7779;49.596;11.070;2023-02-15T00:50:55;2.40;73.80
15359;DHT22;7779;49.596;11.070;2023-02-15T00:53:23;2.40;73.80
15359;DHT22;7779;49.596;11.070;2023-02-15T00:55:49;2.40;73.80
15359;DHT22;7779;49.596;11.070;2023-02-15T00:58:15;2.40;73.90
15359;DHT22;7779;49.596;11.070;2023-02-15T01:00:44;2.40;73.90
15359;DHT22;7779;49.596;11.070;2023-02-15T01:03:11;2.40;73.80
15359;DHT22;7779;49.596;11.070;2023-02-15T01:05:39;2.30;73.70
15359;DHT22;7779;49.596;11.070;2023-02-15T01:08:05;2.40;74.10
15359;DHT22;7779;49.596;11.070;2023-02-15T01:10:31;2.40;73.80
15359;DHT22;7779;49.596;11.070;2023-02-15T01:12:59;2.40;73.80
15359;DHT22;7779;49.596;11.070;2023-02-15T01:15:26;2.40;73.80
15359;DHT22;7779;49.596;11.070;2023-02-15T01:17:52;2.30;73.70
15359;DHT22;7779;49.596;11.070;2023-02-15T01:20:26;2.30;73.70
15359;DHT22;7779;49.596;11.070;2023-02-15T01:22:54;2.30;73.70
15359;DHT22;7779;49.596;11.070;2023-02-15T01:25:23;2.30;73.80
15359;DHT22;7779;49.596;11.070;2023-02-15T01:27:50;2.30;73.80
15359;DHT22;7779;49.596;11.070;2023-02-15T01:30:16;2.30;73.80
15359;DHT22;7779;49.596;11.070;2023-02-15T01:32:42;2.30;73.80
15359;DHT22;7779;49.596;11.070;2023-02-15T01:35:09;2.20;73.80
15359;DHT22;7779;49.596;11.070;2023-02-15T01:37:36;2.20;73.80
15359;DHT22;7779;49.596;11.070;2023-02-15T01:40:06;2.20;73.80
15359;DHT22;7779;49.596;11.070;2023-02-15T01:42:34;2.20;73.80
15359;DHT22;7779;49.596;11.070;2023-02-15T01:45:16;2.30;73.80
15359;DHT22;7779;49.596;11.070;2023-02-15T01:47:59;2.20;73.70
15359;DHT22;7779;49.596;11.070;2023-02-15T01:50:37;2.20;73.70
15359;DHT22;7779;49.596;11.070;2023-02-15T01:53:32;2.20;73.60
15359;DHT22;7779;49.596;11.070;2023-02-15T01:56:09;2.20;73.80
15359;DHT22;7779;49.596;11.070;2023-02-15T01:58:38;2.10;73.60
15359;DHT22;7779;49.596;11.070;2023-02-15T02:01:06;2.10;73.70
15359;DHT22;7779;49.596;11.070;2023-02-15T02:06:39;2.10;73.80
15359;DHT22;7779;49.596;11.070;2023-02-15T02:09:05;2.10;73.80
15359;DHT22;7779;49.596;11.070;2023-02-15T02:11:31;2.10;73.80
15359;DHT22;7779;49.596;11.070;2023-02-15T02:13:58;2.10;73.80
15359;DHT22;7779;49.596;11.070;2023-02-15T02:16:48;2.10;73.80
15359;DHT22;7779;49.596;11.070;2023-02-15T02:19:36;2.10;74.10
15359;DHT22;7779;49.596;11.070;2023-02-15T02:22:24;2.10;73.90
15359;DHT22;7779;49.596;11.070;2023-02-15T02:31:29;2.10;73.80
15359;DHT22;7779;49.596;11.070;2023-02-15T02:34:31;2.10;73.90
15359;DHT22;7779;49.596;11.070;2023-02-15T02:37:12;2.00;73.50
15359;DHT22;7779;49.596;11.070;2023-02-15T02:43:15;2.00;73.70
15359;DHT22;7779;49.596;11.070;2023-02-15T02:45:57;2.00;73.60
15359;DHT22;7779;49.596;11.070;2023-02-15T02:48:30;2.00;73.60
15359;DHT22;7779;49.596;11.070;2023-02-15T02:50:58;2.00;73.60
15359;DHT22;7779;49.596;11.070;2023-02-15T02:53:24;2.00;73.60
15359;DHT22;7779;49.596;11.070;2023-02-15T02:55:55;1.90;74.20
15359;DHT22;7779;49.596;11.070;2023-02-15T02:58:52;1.90;73.60
15359;DHT22;7779;49.596;11.070;2023-02-15T03:01:33;1.90;73.90
15359;DHT22;7779;49.596;11.070;2023-02-15T03:04:08;1.90;73.70
15359;DHT22;7779;49.596;11.070;2023-02-15T03:06:39;1.90;73.70
15359;DHT22;7779;49.596;11.070;2023-02-15T03:09:16;1.90;73.70
15359;DHT22;7779;49.596;11.070;2023-02-15T03:11:47;1.90;73.80
15359;DHT22;7779;49.596;11.070;2023-02-15T03:14:16;2.00;73.80
15359;DHT22;7779;49.596;11.070;2023-02-15T03:16:47;1.90;73.70
15359;DHT22;7779;49.596;11.070;2023-02-15T03:19:27;1.90;73.60
15359;DHT22;7779;49.596;11.070;2023-02-15T03:21:59;1.90;74.30
15359;DHT22;7779;49.596;11.070;2023-02-15T03:24:52;1.80;73.60
15359;DHT22;7779;49.596;11.070;2023-02-15T03:27:24;1.90;73.80
15359;DHT22;7779;49.596;11.070;2023-02-15T03:29:58;1.90;73.70
15359;DHT22;7779;49.596;11.070;2023-02-15T03:32:27;1.90;73.70
15359;DHT22;7779;49.596;11.070;2023-02-15T03:34:55;1.90;73.60
15359;DHT22;7779;49.596;11.070;2023-02-15T03:37:24;1.90;73.70
15359;DHT22;7779;49.596;11.070;2023-02-15T03:43:02;1.90;73.70
15359;DHT22;7779;49.596;11.070;2023-02-15T03:45:38;1.90;73.70
15359;DHT22;7779;49.596;11.070;2023-02-15T03:48:22;1.90;73.60
15359;DHT22;7779;49.596;11.070;2023-02-15T03:50:54;1.80;73.50
15359;DHT22;7779;49.596;11.070;2023-02-15T03:53:43;1.90;73.60
15359;DHT22;7779;49.596;11.070;2023-02-15T03:56:11;1.90;73.60
15359;DHT22;7779;49.596;11.070;2023-02-15T03:58:37;1.90;73.60
15359;DHT22;7779;49.596;11.070;2023-02-15T04:01:38;1.90;73.60
15359;DHT22;7779;49.596;11.070;2023-02-15T04:04:45;1.80;73.60
15359;DHT22;7779;49.596;11.070;2023-02-15T04:07:11;1.80;73.50
15359;DHT22;7779;49.596;11.070;2023-02-15T04:09:37;1.80;73.50
15359;DHT22;7779;49.596;11.070;2023-02-15T04:12:21;1.80;73.60
15359;DHT22;7779;49.596;11.070;2023-02-15T04:14:48;1.80;73.60
15359;DHT22;7779;49.596;11.070;2023-02-15T04:17:32;1.80;73.50
15359;DHT22;7779;49.596;11.070;2023-02-15T04:19:58;1.80;73.50
15359;DHT22;7779;49.596;11.070;2023-02-15T04:22:42;1.80;73.50
15359;DHT22;7779;49.596;11.070;2023-02-15T04:25:26;1.80;73.50
15359;DHT22;7779;49.596;11.070;2023-02-15T04:27:54;1.80;73.60
15359;DHT22;7779;49.596;11.070;2023-02-15T04:30:24;1.80;73.60
15359;DHT22;7779;49.596;11.070;2023-02-15T04:32:50;1.80;73.60
15359;DHT22;7779;49.596;11.070;2023-02-15T04:35:17;1.70;73.50
15359;DHT22;7779;49.596;11.070;2023-02-15T04:37:44;1.80;73.70
15359;DHT22;7779;49.596;11.070;2023-02-15T04:40:12;1.80;73.70
15359;DHT22;7779;49.596;11.070;2023-02-15T04:42:38;1.70;73.60
15359;DHT22;7779;49.596;11.070;2023-02-15T04:45:04;1.80;73.60
15359;DHT22;7779;49.596;11.070;2023-02-15T04:47:31;1.70;73.60
15359;DHT22;7779;49.596;11.070;2023-02-15T04:49:57;1.70;73.60
15359;DHT22;7779;49.596;11.070;2023-02-15T04:52:23;1.70;73.60
15359;DHT22;7779;49.596;11.070;2023-02-15T04:54:49;1.80;73.70
15359;DHT22;7779;49.596;11.070;2023-02-15T04:57:15;1.70;73.60
15359;DHT22;7779;49.596;11.070;2023-02-15T04:59:40;1.80;73.70
15359;DHT22;7779;49.596;11.070;2023-02-15T05:02:06;1.70;73.60
15359;DHT22;7779;49.596;11.070;2023-02-15T05:04:32;1.80;73.60
15359;DHT22;7779;49.596;11.070;2023-02-15T05:06:57;1.70;73.50
15359;DHT22;7779;49.596;11.070;2023-02-15T05:09:23;1.70;73.50
15359;DHT22;7779;49.596;11.070;2023-02-15T05:11:49;1.70;73.50
15359;DHT22;7779;49.596;11.070;2023-02-15T05:14:14;1.70;73.50
15359;DHT22;7779;49.596;11.070;2023-02-15T05:16:40;1.70;73.40
15359;DHT22;7779;49.596;11.070;2023-02-15T05:19:06;1.70;73.40
15359;DHT22;7779;49.596;11.070;2023-02-15T05:21:32;1.70;73.40
15359;DHT22;7779;49.596;11.070;2023-02-15T05:23:58;1.60;72.70
15359;DHT22;7779;49.596;11.070;2023-02-15T05:26:24;1.60;73.80
15359;DHT22;7779;49.596;11.070;2023-02-15T05:29:09;1.70;73.30
15359;DHT22;7779;49.596;11.070;2023-02-15T05:31:36;1.60;73.30
15359;DHT22;7779;49.596;11.070;2023-02-15T05:34:02;1.60;73.40
15359;DHT22;7779;49.596;11.070;2023-02-15T05:36:28;1.60;73.40
15359;DHT22;7779;49.596;11.070;2023-02-15T05:38:54;1.60;73.40
15359;DHT22;7779;49.596;11.070;2023-02-15T05:41:21;1.60;73.60
15359;DHT22;7779;49.596;11.070;2023-02-15T05:43:47;1.60;73.60
15359;DHT22;7779;49.596;11.070;2023-02-15T05:46:13;1.60;73.50
15359;DHT22;7779;49.596;11.070;2023-02-15T05:48:39;1.60;73.50
15359;DHT22;7779;49.596;11.070;2023-02-15T05:51:07;1.50;73.40
15359;DHT22;7779;49.596;11.070;2023-02-15T05:53:36;1.50;73.40
15359;DHT22;7779;49.596;11.070;2023-02-15T05:56:04;1.60;73.50
15359;DHT22;7779;49.596;11.070;2023-02-15T05:58:37;1.50;73.40
15359;DHT22;7779;49.596;11.070;2023-02-15T06:01:17;1.50;73.40
15359;DHT22;7779;49.596;11.070;2023-02-15T06:03:45;1.50;73.40
15359;DHT22;7779;49.596;11.070;2023-02-15T06:06:11;1.50;73.30
15359;DHT22;7779;49.596;11.070;2023-02-15T06:08:38;1.50;73.30
15359;DHT22;7779;49.596;11.070;2023-02-15T06:11:05;1.50;73.20
15359;DHT22;7779;49.596;11.070;2023-02-15T06:13:32;1.50;72.90
15359;DHT22;7779;49.596;11.070;2023-02-15T06:15:58;1.50;73.20
15359;DHT22;7779;49.596;11.070;2023-02-15T06:18:25;1.50;73.30
15359;DHT22;7779;49.596;11.070;2023-02-15T06:20:51;1.40;73.00
15359;DHT22;7779;49.596;11.070;2023-02-15T06:23:17;1.40;73.10
15359;DHT22;7779;49.596;11.070;2023-02-15T06:25:45;1.40;73.00
15359;DHT22;7779;49.596;11.070;2023-02-15T06:28:11;1.40;73.10
15359;DHT22;7779;49.596;11.070;2023-02-15T06:30:37;1.40;73.20
15359;DHT22;7779;49.596;11.070;2023-02-15T06:33:02;1.30;73.10
15359;DHT22;7779;49.596;11.070;2023-02-15T06:35:28;1.40;73.30
15359;DHT22;7779;49.596;11.070;2023-02-15T06:37:54;1.30;73.20
15359;DHT22;7779;49.596;11.070;2023-02-15T06:40:19;1.40;73.30
15359;DHT22;7779;49.596;11.070;2023-02-15T06:42:45;1.30;73.30
15359;DHT22;7779;49.596;11.070;2023-02-15T06:45:11;1.30;73.30
15359;DHT22;7779;49.596;11.070;2023-02-15T06:47:37;1.30;73.10
15359;DHT22;7779;49.596;11.070;2023-02-15T06:50:05;1.30;73.40
15359;DHT22;7779;49.596;11.070;2023-02-15T06:52:31;1.30;73.30
15359;DHT22;7779;49.596;11.070;2023-02-15T06:54:57;1.30;73.40
15359;DHT22;7779;49.596;11.070;2023-02-15T06:57:23;1.30;73.40
15359;DHT22;7779;49.596;11.070;2023-02-15T06:59:48;1.30;73.40
15359;DHT22;7779;49.596;11.070;2023-02-15T07:02:15;1.30;73.40
15359;DHT22;7779;49.596;11.070;2023-02-15T07:04:40;1.30;73.40
15359;DHT22;7779;49.596;11.070;2023-02-15T07:07:10;1.30;73.50
15359;DHT22;7779;49.596;11.070;2023-02-15T07:09:38;1.30;73.50
15359;DHT22;7779;49.596;11.070;2023-02-15T07:12:04;1.30;73.50
15359;DHT22;7779;49.596;11.070;2023-02-15T07:14:49;1.40;73.70
15359;DHT22;7779;49.596;11.070;2023-02-15T07:17:15;1.40;73.70
15359;DHT22;7779;49.596;11.070;2023-02-15T07:19:41;1.40;73.60
15359;DHT22;7779;49.596;11.070;2023-02-15T07:22:07;1.40;73.70
15359;DHT22;7779;49.596;11.070;2023-02-15T07:24:33;1.40;73.60
15359;DHT22;7779;49.596;11.070;2023-02-15T07:26:58;1.40;73.60
15359;DHT22;7779;49.596;11.070;2023-02-15T07:29:24;1.40;73.60
15359;DHT22;7779;49.596;11.070;2023-02-15T07:31:50;1.50;73.60
15359;DHT22;7779;49.596;11.070;2023-02-15T07:34:15;1.50;73.60
15359;DHT22;7779;49.596;11.070;2023-02-15T07:36:41;1.50;73.60
15359;DHT22;7779;49.596;11.070;2023-02-15T07:39:09;1.50;73.70
15359;DHT22;7779;49.596;11.070;2023-02-15T07:41:35;1.50;73.70
15359;DHT22;7779;49.596;11.070;2023-02-15T07:44:13;1.50;73.70
15359;DHT22;7779;49.596;11.070;2023-02-15T07:46:40;1.50;73.70
15359;DHT22;7779;49.596;11.070;2023-02-15T07:49:06;1.60;73.80
15359;DHT22;7779;49.596;11.070;2023-02-15T07:51:32;1.60;73.80
15359;DHT22;7779;49.596;11.070;2023-02-15T07:53:58;1.60;73.80
15359;DHT22;7779;49.596;11.070;2023-02-15T07:56:24;1.60;73.80
15359;DHT22;7779;49.596;11.070;2023-02-15T07:58:49;1.70;73.90
15359;DHT22;7779;49.596;11.070;2023-02-15T08:01:20;1.70;73.80
15359;DHT22;7779;49.596;11.070;2023-02-15T08:03:55;1.70;73.80
15359;DHT22;7779;49.596;11.070;2023-02-15T08:06:23;1.70;73.80
15359;DHT22;7779;49.596;11.070;2023-02-15T08:08:51;1.70;73.80
15359;DHT22;7779;49.596;11.070;2023-02-15T08:11:21;1.70;73.70
15359;DHT22;7779;49.596;11.070;2023-02-15T08:13:57;1.80;73.90
15359;DHT22;7779;49.596;11.070;2023-02-15T08:16:39;1.80;73.80
15359;DHT22;7779;49.596;11.070;2023-02-15T08:19:31;1.80;73.80
15359;DHT22;7779;49.596;11.070;2023-02-15T08:22:00;1.90;73.90
15359;DHT22;7779;49.596;11.070;2023-02-15T08:24:33;1.90;73.90
15359;DHT22;7779;49.596;11.070;2023-02-15T08:27:05;1.90;73.90
15359;DHT22;7779;49.596;11.070;2023-02-15T08:29:32;1.90;74.00
15359;DHT22;7779;49.596;11.070;2023-02-15T08:32:07;2.00;74.00
15359;DHT22;7779;49.596;11.070;2023-02-15T08:34:38;2.00;74.00
15359;DHT22;7779;49.596;11.070;2023-02-15T08:37:05;2.00;73.90
15359;DHT22;7779;49.596;11.070;2023-02-15T08:39:31;2.10;74.00
15359;DHT22;7779;49.596;11.070;2023-02-15T08:41:57;2.10;73.90
15359;DHT22;7779;49.596;11.070;2023-02-15T08:44:24;2.20;74.00
15359;DHT22;7779;49.596;11.070;2023-02-15T08:46:49;2.20;73.90
15359;DHT22;7779;49.596;11.070;2023-02-15T08:49:18;2.10;73.70
15359;DHT22;7779;49.596;11.070;2023-02-15T08:51:46;2.20;73.80
15359;DHT22;7779;49.596;11.070;2023-02-15T08:54:16;2.30;73.90
15359;DHT22;7779;49.596;11.070;2023-02-15T08:56:44;2.30;73.90
15359;DHT22;7779;49.596;11.070;2023-02-15T08:59:19;2.30;73.80
15359;DHT22;7779;49.596;11.070;2023-02-15T09:01:48;2.40;73.80
15359;DHT22;7779;49.596;11.070;2023-02-15T09:04:15;2.40;73.80
15359;DHT22;7779;49.596;11.070;2023-02-15T09:06:42;2.50;73.80
15359;DHT22;7779;49.596;11.070;2023-02-15T09:09:11;2.50;73.80
15359;DHT22;7779;49.596;11.070;2023-02-15T09:11:39;2.50;73.80
15359;DHT22;7779;49.596;11.070;2023-02-15T09:14:12;2.60;73.90
15359;DHT22;7779;49.596;11.070;2023-02-15T09:16:40;2.60;73.80
15359;DHT22;7779;49.596;11.070;2023-02-15T09:19:07;2.70;73.90
15359;DHT22;7779;49.596;11.070;2023-02-15T09:21:36;2.70;73.80
15359;DHT22;7779;49.596;11.070;2023-02-15T09:24:06;2.80;73.80
15359;DHT22;7779;49.596;11.070;2023-02-15T09:26:36;2.80;73.80
15359;DHT22;7779;49.596;11.070;2023-02-15T09:29:04;2.80;73.70
15359;DHT22;7779;49.596;11.070;2023-02-15T09:31:32;2.80;73.60
15359;DHT22;7779;49.596;11.070;2023-02-15T09:34:00;2.90;73.60
15359;DHT22;7779;49.596;11.070;2023-02-15T09:36:32;2.90;73.60
15359;DHT22;7779;49.596;11.070;2023-02-15T09:39:10;3.00;73.50
15359;DHT22;7779;49.596;11.070;2023-02-15T09:45:26;3.00;72.90
15359;DHT22;7779;49.596;11.070;2023-02-15T09:54:16;3.20;73.50
15359;DHT22;7779;49.596;11.070;2023-02-15T09:57:03;3.20;73.40
15359;DHT22;7779;49.596;11.070;2023-02-15T09:59:48;3.30;73.30
15359;DHT22;7779;49.596;11.070;2023-02-15T10:02:44;3.30;72.90
15359;DHT22;7779;49.596;11.070;2023-02-15T10:08:17;3.40;72.80
15359;DHT22;7779;49.596;11.070;2023-02-15T10:11:22;3.40;73.00
15359;DHT22;7779;49.596;11.070;2023-02-15T10:14:13;3.40;72.80
15359;DHT22;7779;49.596;11.070;2023-02-15T10:22:35;3.50;73.50
15359;DHT22;7779;49.596;11.070;2023-02-15T10:25:33;3.60;72.70
15359;DHT22;7779;49.596;11.070;2023-02-15T10:28:11;3.70;72.80
15359;DHT22;7779;49.596;11.070;2023-02-15T10:30:49;3.70;73.10
15359;DHT22;7779;49.596;11.070;2023-02-15T10:33:38;3.80;73.20
15359;DHT22;7779;49.596;11.070;2023-02-15T10:36:21;3.90;72.90
15359;DHT22;7779;49.596;11.070;2023-02-15T10:39:17;3.90;73.10
15359;DHT22;7779;49.596;11.070;2023-02-15T10:45:13;4.00;72.70
15359;DHT22;7779;49.596;11.070;2023-02-15T10:48:10;4.10;73.00
15359;DHT22;7779;49.596;11.070;2023-02-15T10:51:03;4.10;73.20
15359;DHT22;7779;49.596;11.070;2023-02-15T10:54:04;4.20;73.40
15359;DHT22;7779;49.596;11.070;2023-02-15T11:05:07;4.60;73.20
15359;DHT22;7779;49.596;11.070;2023-02-15T11:07:48;4.70;73.10
15359;DHT22;7779;49.596;11.070;2023-02-15T11:10:38;4.70;73.00
15359;DHT22;7779;49.596;11.070;2023-02-15T11:13:11;4.80;72.60
15359;DHT22;7779;49.596;11.070;2023-02-15T11:15:48;4.80;72.60
15359;DHT22;7779;49.596;11.070;2023-02-15T11:21:40;4.90;72.00
15359;DHT22;7779;49.596;11.070;2023-02-15T11:23:53;4.90;71.50
15359;DHT22;7779;49.596;11.070;2023-02-15T11:26:36;4.90;71.30
15359;DHT22;7779;49.596;11.070;2023-02-15T11:29:21;4.80;70.50
15359;DHT22;7779;49.596;11.070;2023-02-15T11:31:59;4.80;70.70
15359;DHT22;7779;49.596;11.070;2023-02-15T11:34:31;4.80;70.90
15359;DHT22;7779;49.596;11.070;2023-02-15T11:37:06;4.80;71.20
15359;DHT22;7779;49.596;11.070;2023-02-15T11:39:35;4.80;71.10
15359;DHT22;7779;49.596;11.070;2023-02-15T11:42:13;4.80;71.50
15359;DHT22;7779;49.596;11.070;2023-02-15T11:44:58;4.80;71.20
15359;DHT22;7779;49.596;11.070;2023-02-15T11:47:49;4.90;70.00
15359;DHT22;7779;49.596;11.070;2023-02-15T11:50:18;4.90;71.80
15359;DHT22;7779;49.596;11.070;2023-02-15T11:52:51;5.00;72.00
15359;DHT22;7779;49.596;11.070;2023-02-15T11:55:22;5.00;72.10
15359;DHT22;7779;49.596;11.070;2023-02-15T12:00:54;5.20;71.30
15359;DHT22;7779;49.596;11.070;2023-02-15T12:03:40;5.20;71.60
15359;DHT22;7779;49.596;11.070;2023-02-15T12:06:29;5.30;71.40
15359;DHT22;7779;49.596;11.070;2023-02-15T12:09:28;5.30;71.00
15359;DHT22;7779;49.596;11.070;2023-02-15T12:14:54;5.40;70.30
15359;DHT22;7779;49.596;11.070;2023-02-15T12:17:24;5.40;70.90
15359;DHT22;7779;49.596;11.070;2023-02-15T12:19:55;5.50;70.80
15359;DHT22;7779;49.596;11.070;2023-02-15T12:22:29;5.50;70.90
15359;DHT22;7779;49.596;11.070;2023-02-15T12:25:00;5.50;70.70
15359;DHT22;7779;49.596;11.070;2023-02-15T12:27:30;5.60;69.00
15359;DHT22;7779;49.596;11.070;2023-02-15T12:30:07;5.60;70.80
15359;DHT22;7779;49.596;11.070;2023-02-15T12:32:53;5.60;70.60
15359;DHT22;7779;49.596;11.070;2023-02-15T12:35:29;5.70;70.30
15359;DHT22;7779;49.596;11.070;2023-02-15T12:40:57;5.80;69.80
15359;DHT22;7779;49.596;11.070;2023-02-15T12:43:35;5.80;70.10
15359;DHT22;7779;49.596;11.070;2023-02-15T12:46:22;5.90;70.50
15359;DHT22;7779;49.596;11.070;2023-02-15T12:49:19;5.90;69.80
15359;DHT22;7779;49.596;11.070;2023-02-15T12:56:49;6.10;70.50
15359;DHT22;7779;49.596;11.070;2023-02-15T12:59:15;6.10;70.60
15359;DHT22;7779;49.596;11.070;2023-02-15T13:01:42;6.20;70.50
15359;DHT22;7779;49.596;11.070;2023-02-15T13:04:23;6.20;70.90
15359;DHT22;7779;49.596;11.070;2023-02-15T13:06:54;6.20;69.50
15359;DHT22;7779;49.596;11.070;2023-02-15T13:09:37;6.30;70.10
15359;DHT22;7779;49.596;11.070;2023-02-15T13:12:24;6.40;69.60
15359;DHT22;7779;49.596;11.070;2023-02-15T13:14:54;6.40;69.30
15359;DHT22;7779;49.596;11.070;2023-02-15T13:17:25;6.50;70.30
15359;DHT22;7779;49.596;11.070;2023-02-15T13:19:57;6.50;70.00
15359;DHT22;7779;49.596;11.070;2023-02-15T13:22:38;6.60;70.00
15359;DHT22;7779;49.596;11.070;2023-02-15T13:25:29;6.60;70.00
15359;DHT22;7779;49.596;11.070;2023-02-15T13:28:02;6.70;68.90
15359;DHT22;7779;49.596;11.070;2023-02-15T13:30:38;6.70;69.80
15359;DHT22;7779;49.596;11.070;2023-02-15T13:33:22;6.80;69.40
15359;DHT22;7779;49.596;11.070;2023-02-15T13:39:11;6.90;69.60
15359;DHT22;7779;49.596;11.070;2023-02-15T13:51:25;7.10;68.60
15359;DHT22;7779;49.596;11.070;2023-02-15T13:54:03;7.20;69.30
15359;DHT22;7779;49.596;11.070;2023-02-15T13:57:08;7.30;68.20
15359;DHT22;7779;49.596;11.070;2023-02-15T14:06:32;7.30;68.00
15359;DHT22;7779;49.596;11.070;2023-02-15T14:13:01;7.30;67.70
15359;DHT22;7779;49.596;11.070;2023-02-15T14:15:46;7.30;68.10
15359;DHT22;7779;49.596;11.070;2023-02-15T14:18:24;7.30;66.60
15359;DHT22;7779;49.596;11.070;2023-02-15T14:21:02;7.30;68.40
15359;DHT22;7779;49.596;11.070;2023-02-15T14:32:44;7.20;68.00
15359;DHT22;7779;49.596;11.070;2023-02-15T14:35:15;7.20;67.20
15359;DHT22;7779;49.596;11.070;2023-02-15T14:37:51;7.20;68.20
15359;DHT22;7779;49.596;11.070;2023-02-15T14:40:30;7.20;68.00
15359;DHT22;7779;49.596;11.070;2023-02-15T14:43:47;7.20;67.90
15359;DHT22;7779;49.596;11.070;2023-02-15T14:49:35;7.20;67.70
15359;DHT22;7779;49.596;11.070;2023-02-15T14:52:12;7.20;68.30
15359;DHT22;7779;49.596;11.070;2023-02-15T15:02:42;7.20;68.00
15359;DHT22;7779;49.596;11.070;2023-02-15T15:05:21;7.10;67.20
15359;DHT22;7779;49.596;11.070;2023-02-15T15:07:58;7.10;67.90
15359;DHT22;7779;49.596;11.070;2023-02-15T15:16:23;7.10;67.40
15359;DHT22;7779;49.596;11.070;2023-02-15T15:19:02;7.10;67.70
15359;DHT22;7779;49.596;11.070;2023-02-15T15:27:43;7.00;67.00
15359;DHT22;7779;49.596;11.070;2023-02-15T15:32:42;6.90;67.40
15359;DHT22;7779;49.596;11.070;2023-02-15T15:35:33;6.90;67.40
15359;DHT22;7779;49.596;11.070;2023-02-15T15:50:16;6.60;67.00
15359;DHT22;7779;49.596;11.070;2023-02-15T15:52:52;6.60;67.30
15359;DHT22;7779;49.596;11.070;2023-02-15T15:55:22;6.50;67.10
15359;DHT22;7779;49.596;11.070;2023-02-15T15:57:56;6.50;67.30
15359;DHT22;7779;49.596;11.070;2023-02-15T16:00:47;6.40;67.10
15359;DHT22;7779;49.596;11.070;2023-02-15T16:03:23;6.40;66.90
15359;DHT22;7779;49.596;11.070;2023-02-15T16:05:52;6.30;67.20
15359;DHT22;7779;49.596;11.070;2023-02-15T16:08:37;6.30;67.20
15359;DHT22;7779;49.596;11.070;2023-02-15T16:11:19;6.20;66.90
15359;DHT22;7779;49.596;11.070;2023-02-15T16:13:48;6.20;67.00
15359;DHT22;7779;49.596;11.070;2023-02-15T16:16:21;6.10;67.10
15359;DHT22;7779;49.596;11.070;2023-02-15T16:18:50;6.00;66.90
15359;DHT22;7779;49.596;11.070;2023-02-15T16:21:24;6.00;67.10
15359;DHT22;7779;49.596;11.070;2023-02-15T16:29:27;5.80;67.00
15359;DHT22;7779;49.596;11.070;2023-02-15T16:32:00;5.70;66.80
15359;DHT22;7779;49.596;11.070;2023-02-15T16:34:28;5.60;66.90
15359;DHT22;7779;49.596;11.070;2023-02-15T16:37:17;5.60;67.00
15359;DHT22;7779;49.596;11.070;2023-02-15T16:39:49;5.50;66.90
15359;DHT22;7779;49.596;11.070;2023-02-15T16:42:16;5.40;66.90
15359;DHT22;7779;49.596;11.070;2023-02-15T16:44:45;5.30;66.90
15359;DHT22;7779;49.596;11.070;2023-02-15T16:47:26;5.10;66.30
15359;DHT22;7779;49.596;11.070;2023-02-15T16:50:00;5.10;66.90
15359;DHT22;7779;49.596;11.070;2023-02-15T16:52:28;5.00;66.80
15359;DHT22;7779;49.596;11.070;2023-02-15T16:54:57;4.90;66.80
15359;DHT22;7779;49.596;11.070;2023-02-15T16:57:28;4.90;66.90
15359;DHT22;7779;49.596;11.070;2023-02-15T17:00:03;4.80;66.90
15359;DHT22;7779;49.596;11.070;2023-02-15T17:02:33;4.60;66.90
15359;DHT22;7779;49.596;11.070;2023-02-15T17:13:16;4.30;67.00
15359;DHT22;7779;49.596;11.070;2023-02-15T17:16:08;4.20;67.00
15359;DHT22;7779;49.596;11.070;2023-02-15T17:18:39;4.10;67.00
15359;DHT22;7779;49.596;11.070;2023-02-15T17:21:20;4.00;67.00
15359;DHT22;7779;49.596;11.070;2023-02-15T17:24:03;3.80;66.90
15359;DHT22;7779;49.596;11.070;2023-02-15T17:26:35;3.80;67.00
15359;DHT22;7779;49.596;11.070;2023-02-15T17:29:14;3.70;66.70
15359;DHT22;7779;49.596;11.070;2023-02-15T17:31:56;3.60;67.10
15359;DHT22;7779;49.596;11.070;2023-02-15T17:40:18;3.30;67.10
15359;DHT22;7779;49.596;11.070;2023-02-15T17:42:49;3.20;67.20
15359;DHT22;7779;49.596;11.070;2023-02-15T17:45:16;3.10;67.10
15359;DHT22;7779;49.596;11.070;2023-02-15T17:47:42;3.10;67.30
15359;DHT22;7779;49.596;11.070;2023-02-15T17:50:24;3.00;67.40
15359;DHT22;7779;49.596;11.070;2023-02-15T17:52:52;2.90;67.50
15359;DHT22;7779;49.596;11.070;2023-02-15T17:55:21;2.80;67.40
15359;DHT22;7779;49.596;11.070;2023-02-15T17:58:00;2.80;67.40
15359;DHT22;7779;49.596;11.070;2023-02-15T18:00:31;2.70;68.00
15359;DHT22;7779;49.596;11.070;2023-02-15T18:03:19;2.60;67.40
15359;DHT22;7779;49.596;11.070;2023-02-15T18:06:04;2.50;67.30
15359;DHT22;7779;49.596;11.070;2023-02-15T18:08:48;2.40;67.40
15359;DHT22;7779;49.596;11.070;2023-02-15T18:11:32;2.40;67.50
15359;DHT22;7779;49.596;11.070;2023-02-15T18:13:59;2.30;67.50
15359;DHT22;7779;49.596;11.070;2023-02-15T18:16:36;2.20;67.50
15359;DHT22;7779;49.596;11.070;2023-02-15T18:19:06;2.20;67.70
15359;DHT22;7779;49.596;11.070;2023-02-15T18:21:36;2.10;67.70
15359;DHT22;7779;49.596;11.070;2023-02-15T18:24:01;2.00;67.70
15359;DHT22;7779;49.596;11.070;2023-02-15T18:26:27;2.00;67.80
15359;DHT22;7779;49.596;11.070;2023-02-15T18:28:54;2.00;68.00
15359;DHT22;7779;49.596;11.070;2023-02-15T18:31:22;1.90;68.00
15359;DHT22;7779;49.596;11.070;2023-02-15T18:33:56;1.90;68.10
15359;DHT22;7779;49.596;11.070;2023-02-15T18:36:28;1.80;68.20
15359;DHT22;7779;49.596;11.070;2023-02-15T18:38:57;1.80;68.20
15359;DHT22;7779;49.596;11.070;2023-02-15T18:41:24;1.70;68.10
15359;DHT22;7779;49.596;11.070;2023-02-15T18:43:51;1.60;68.00
15359;DHT22;7779;49.596;11.070;2023-02-15T18:46:18;1.60;68.10
15359;DHT22;7779;49.596;11.070;2023-02-15T18:48:44;1.60;68.30
15359;DHT22;7779;49.596;11.070;2023-02-15T18:51:19;1.50;68.30
15359;DHT22;7779;49.596;11.070;2023-02-15T18:53:51;1.40;68.40
15359;DHT22;7779;49.596;11.070;2023-02-15T18:56:20;1.40;68.50
15359;DHT22;7779;49.596;11.070;2023-02-15T18:58:47;1.40;68.60